Brookhaven Weather

Current Time: 21:01 Zulu

HWV METARs

Local Time Temperature Dew Point Wind Direction Wind Speed Wind Gust Sky Vis.
1/20/2019 8:56:00 PM -1.7° c -5.6° c 310° 22 kt 31kt SCT 3500 ft AGL 10.0 sm
1/20/2019 8:32:00 PM 0.0° c -3.9° c 320° 17 kt 29kt FEW 1100 ft AGL 10.0 sm
1/20/2019 8:18:00 PM 0.6° c -2.2° c 330° 20 kt 31kt SCT 600 ft AGL 10.0 sm
1/20/2019 8:07:00 PM 1.7° c 0.6° c 330° 20 kt 26kt BKN 800 ft AGL 5.0 sm
1/20/2019 7:56:00 PM 1.7° c 0.6° c 330° 13 kt - OVC 800 ft AGL 2.5 sm
1/20/2019 7:45:00 PM 1.7° c 0.6° c 340° 13 kt 23kt OVC 800 ft AGL 2.5 sm
1/20/2019 6:56:00 PM 1.7° c 0.6° c 350° 15 kt 24kt OVC 500 ft AGL 4.0 sm
1/20/2019 6:46:00 PM 2.2° c 1.1° c 340° 13 kt 25kt OVC 500 ft AGL 3.0 sm
1/20/2019 6:20:00 PM 5.0° c 3.9° c 330° 22 kt 26kt OVC 300 ft AGL 3.0 sm
1/20/2019 6:17:00 PM 6.1° c 5.0° c 330° 18 kt 24kt OVC 200 ft AGL 3.0 sm
1/20/2019 6:04:00 PM 10.0° c 9.4° c 240° 9 kt - OVC 200 ft AGL 1.5 sm
1/20/2019 5:56:00 PM 10.0° c 9.4° c 220° 12 kt 21kt OVC 200 ft AGL 0.75 sm
1/20/2019 5:54:00 PM 10.0° c 9.0° c 220° 14 kt 21kt OVC 200 ft AGL 0.75 sm
1/20/2019 5:41:00 PM 10.6° c 10.0° c 200° 14 kt 20kt OVC 200 ft AGL 1.75 sm

ISP TAF:

KISP 202118Z 2021/2118 32016G25KT P6SM SCT015 BKN060 TEMPO 2021/2022 BKN015 
FM202200 32018G30KT P6SM SCT015 BKN030 
FM210100 32021G32KT P6SM SCT030 
FM211400 31022G34KT P6SM BKN030 BKN100
Weather data provided by aviationweather.gov. Pilots must verify weather before flying.